Time;durP1;ratioP1;P1;durP2;ratioP2;P2;SDS_P1;SDS_P2;PMS_P1;PMS_P2;Temp;Humidity;BMP_temperature;BMP_pressure;BME280_temperature;BME280_humidity;BME280_pressure;Samples;Min_cycle;Max_cycle;Signal;HPM_P1;HPM_P2
2022/04/18 00:01:12;;;;;;;;;;;8.50;74.10;;;7.36;nan;96188.16;4208860;33;20379;-82
2022/04/18 00:03:41;;;;;;;;;;;8.50;74.10;;;7.36;nan;96187.31;4200587;33;20096;-82
2022/04/18 00:06:09;;;;;;;;;;;8.40;74.00;;;7.36;nan;96187.31;4213144;33;20217;-82
2022/04/18 00:08:38;;;;;;;;;;;8.40;74.00;;;7.35;nan;96186.50;4213810;33;20120;-82
2022/04/18 00:11:08;;;;;;;;;;;8.40;73.90;;;7.34;nan;96184.06;4261693;33;20142;-82
2022/04/18 00:13:36;;;;;;;;;;;8.40;73.90;;;7.33;nan;96185.94;4213673;33;19909;-83
2022/04/18 00:16:05;;;;;;;;;;;8.40;74.00;;;7.33;nan;96185.94;4213145;33;19908;-82
2022/04/18 00:18:34;;;;;;;;;;;8.40;73.90;;;7.33;nan;96185.94;4242419;28;19902;-86
2022/04/18 00:21:03;;;;;;;;;;;8.40;74.10;;;7.32;nan;96184.28;4266609;33;19902;-86
2022/04/18 00:23:31;;;;;;;;;;;8.40;74.00;;;7.32;nan;96184.28;4225720;33;19983;-86
2022/04/18 00:26:00;;;;;;;;;;;8.40;74.00;;;7.32;nan;96173.38;4244640;33;19967;-87
2022/04/18 00:28:30;;;;;;;;;;;8.40;73.90;;;7.30;nan;96180.97;4244746;33;19901;-86
2022/04/18 00:30:59;;;;;;;;;;;8.40;74.00;;;7.31;nan;96174.47;4244681;33;19902;-87
2022/04/18 00:33:27;;;;;;;;;;;8.40;73.90;;;7.31;nan;96165.47;4244711;33;20335;-86
2022/04/18 00:35:56;;;;;;;;;;;8.40;73.90;;;7.30;nan;96167.38;4244240;33;20032;-87
2022/04/18 00:38:25;;;;;;;;;;;8.40;74.00;;;7.30;nan;96164.63;4244250;33;20155;-86
2022/04/18 00:40:53;;;;;;;;;;;8.40;74.00;;;7.29;nan;96164.91;4244681;33;20059;-87
2022/04/18 00:43:41;;;;;;;;;;;8.40;73.80;;;7.29;nan;96154.00;4244206;33;19908;-86
2022/04/18 00:46:10;;;;;;;;;;;8.40;73.80;;;7.26;nan;96149.06;4267632;33;20155;-86
2022/04/18 00:48:39;;;;;;;;;;;8.40;73.80;;;7.28;nan;96146.91;4244165;33;19902;-87
2022/04/18 00:51:09;;;;;;;;;;;8.40;73.80;;;7.26;nan;96152.63;4266731;33;20372;-87
2022/04/18 00:53:38;;;;;;;;;;;8.30;73.90;;;7.26;nan;96147.19;4216196;33;20126;-86
2022/04/18 00:56:07;;;;;;;;;;;8.40;73.90;;;7.25;nan;96140.09;4215534;33;20109;-87
2022/04/18 00:58:36;;;;;;;;;;;8.30;73.90;;;7.26;nan;96143.63;4216069;33;19902;-86
2022/04/18 01:01:06;;;;;;;;;;;8.30;74.00;;;7.25;nan;96136.53;4216152;33;19917;-86
2022/04/18 01:03:35;;;;;;;;;;;8.30;73.90;;;7.23;nan;96136.78;4218334;33;19902;-87
2022/04/18 01:06:04;;;;;;;;;;;8.30;74.00;;;7.23;nan;96134.06;4244224;33;19901;-88
2022/04/18 01:08:34;;;;;;;;;;;8.30;73.80;;;7.22;nan;96126.97;4268224;33;20260;-87
2022/04/18 01:11:05;;;;;;;;;;;8.30;74.00;;;7.22;nan;96121.50;4244643;33;19908;-87
2022/04/18 01:13:53;;;;;;;;;;;8.30;73.90;;;7.22;nan;96126.97;4268049;33;20085;-87
2022/04/18 01:16:42;;;;;;;;;;;8.30;74.00;;;7.20;nan;96119.06;4293507;33;19901;-87
2022/04/18 01:19:23;;;;;;;;;;;8.30;74.00;;;7.18;nan;96117.63;4244783;33;22945;-87
2022/04/18 01:22:04;;;;;;;;;;;8.30;74.00;;;7.20;nan;96120.94;4244463;33;20087;-87
2022/04/18 01:30:30;;;;;;;;;;;8.30;73.80;;;7.16;nan;96108.94;4155690;34;19903;-88
2022/04/18 01:32:59;;;;;;;;;;;8.20;73.70;;;7.16;nan;96106.19;4224818;33;19902;-88
2022/04/18 01:35:28;;;;;;;;;;;8.30;73.70;;;7.15;nan;96096.38;4268622;33;19936;-87
2022/04/18 01:37:58;;;;;;;;;;;8.30;73.70;;;7.15;nan;96105.38;4244739;33;19902;-88
2022/04/18 01:40:28;;;;;;;;;;;8.30;73.70;;;7.16;nan;96106.19;4244852;33;20371;-88
2022/04/18 01:42:56;;;;;;;;;;;8.30;73.90;;;7.16;nan;96103.47;4244581;33;19901;-88
2022/04/18 01:45:25;;;;;;;;;;;8.20;73.70;;;7.14;nan;96098.25;4292598;33;19909;-88
2022/04/18 01:48:07;;;;;;;;;;;8.20;73.80;;;7.14;nan;96105.63;4244462;33;19986;-87
2022/04/18 01:50:35;;;;;;;;;;;8.20;73.90;;;7.12;nan;96096.88;4244578;33;19985;-88
2022/04/18 01:53:06;;;;;;;;;;;8.20;73.60;;;7.13;nan;96090.38;4244486;33;19909;-88
2022/04/18 01:55:35;;;;;;;;;;;8.20;73.70;;;7.10;nan;96090.84;4268374;33;20470;-88
2022/04/18 01:58:05;;;;;;;;;;;8.20;73.60;;;7.12;nan;96094.97;4244169;33;20313;-87
2022/04/18 02:00:34;;;;;;;;;;;8.20;73.70;;;7.09;nan;96086.47;4244194;33;19908;-88
2022/04/18 02:03:02;;;;;;;;;;;8.20;73.60;;;7.11;nan;96089.78;4244065;33;19902;-87
2022/04/18 02:05:31;;;;;;;;;;;8.20;73.70;;;7.10;nan;96094.38;4244041;33;19901;-87
2022/04/18 02:08:00;;;;;;;;;;;8.20;73.70;;;7.10;nan;96085.41;4267524;33;19908;-87
2022/04/18 02:10:30;;;;;;;;;;;8.20;73.70;;;7.09;nan;96089.22;4243941;33;19901;-88
2022/04/18 02:12:59;;;;;;;;;;;8.20;73.70;;;7.09;nan;96078.31;4267682;33;19947;-87
2022/04/18 02:15:28;;;;;;;;;;;8.20;73.70;;;7.07;nan;96084.84;4243926;33;19902;-87
2022/04/18 02:18:03;;;;;;;;;;;8.20;73.70;;;7.06;nan;96072.28;4267134;33;20118;-87
2022/04/18 02:20:32;;;;;;;;;;;8.20;73.70;;;7.05;nan;96067.13;4267325;33;19915;-87
2022/04/18 02:23:01;;;;;;;;;;;8.20;73.70;;;7.04;nan;96062.75;4243565;33;19901;-86
2022/04/18 02:25:31;;;;;;;;;;;8.20;73.80;;;7.05;nan;96073.38;4262394;33;19902;-87
2022/04/18 02:28:06;;;;;;;;;;;8.20;73.60;;;7.04;nan;96066.28;4214228;33;19913;-87
2022/04/18 02:30:43;;;;;;;;;;;8.20;73.60;;;7.03;nan;96070.09;4214877;33;20092;-87
2022/04/18 02:33:12;;;;;;;;;;;8.10;73.60;;;7.03;nan;96067.38;4214846;33;20068;-87
2022/04/18 02:35:41;;;;;;;;;;;8.10;73.70;;;7.03;nan;96063.81;4214688;33;19902;-87
2022/04/18 02:38:10;;;;;;;;;;;8.10;73.60;;;7.01;nan;96065.97;4213967;33;19909;-86
2022/04/18 02:40:47;;;;;;;;;;;8.10;73.70;;;6.99;nan;96068.94;4214751;33;19910;-87
2022/04/18 02:43:16;;;;;;;;;;;8.10;73.90;;;7.01;nan;96076.84;4214892;33;20004;-86
2022/04/18 02:45:52;;;;;;;;;;;8.10;73.70;;;7.00;nan;96073.31;4237113;33;20471;-89
2022/04/18 02:48:32;;;;;;;;;;;8.10;73.90;;;7.00;nan;96075.19;4214299;33;20128;-86
2022/04/18 02:51:02;;;;;;;;;;;8.10;73.60;;;6.98;nan;96064.56;4224349;33;20139;-87
2022/04/18 02:53:33;;;;;;;;;;;8.10;73.60;;;6.98;nan;96067.31;4242679;33;19978;-86
2022/04/18 02:56:09;;;;;;;;;;;8.10;73.70;;;6.99;nan;96071.66;4242182;33;20097;-87
2022/04/18 02:58:43;;;;;;;;;;;8.10;73.60;;;6.97;nan;96068.38;4241933;33;19909;-86
2022/04/18 03:01:12;;;;;;;;;;;8.10;73.70;;;6.97;nan;96071.09;4255644;33;19909;-86
2022/04/18 03:03:41;;;;;;;;;;;8.10;73.60;;;6.95;nan;96056.09;4214374;33;20160;-86
2022/04/18 03:06:10;;;;;;;;;;;8.10;73.70;;;6.96;nan;96068.63;4213787;33;19938;-86
2022/04/18 03:08:40;;;;;;;;;;;8.00;73.30;;;6.95;nan;96065.06;4237658;33;19909;-86
2022/04/18 03:11:10;;;;;;;;;;;8.00;73.40;;;6.95;nan;96056.09;4214319;33;19909;-86
2022/04/18 03:13:44;;;;;;;;;;;8.10;73.70;;;6.93;nan;96050.06;4214201;33;19901;-86
2022/04/18 03:16:19;;;;;;;;;;;8.10;73.40;;;6.94;nan;96065.34;4237158;33;20134;-86
2022/04/18 03:18:47;;;;;;;;;;;8.10;73.50;;;6.94;nan;96068.88;4214050;33;20209;-86
2022/04/18 03:21:16;;;;;;;;;;;8.00;73.50;;;6.90;nan;96060.38;4214106;33;20037;-86
2022/04/18 03:23:46;;;;;;;;;;;8.00;73.50;;;6.91;nan;96061.19;4237429;33;19906;-86
2022/04/18 03:26:42;;;;;;;;;;;8.00;73.50;;;6.92;nan;96062.84;4246526;33;20016;-86
2022/04/18 03:29:32;;;;;;;;;;;8.00;73.70;;;6.91;nan;96072.91;4214107;33;19909;-86
2022/04/18 03:32:02;;;;;;;;;;;8.00;73.40;;;6.90;nan;96070.47;4245958;33;19925;-86
2022/04/18 03:34:34;;;;;;;;;;;8.00;73.60;;;6.90;nan;96065.00;4261233;33;19969;-85
2022/04/18 03:39:52;;;;;;;;;;;8.00;73.50;;;6.89;nan;96063.38;4242060;33;19913;-86
2022/04/18 03:42:32;;;;;;;;;;;8.00;73.60;;;6.88;nan;96064.44;4277779;33;19980;-86
2022/04/18 03:45:11;;;;;;;;;;;8.00;73.30;;;6.88;nan;96067.16;4242145;33;20012;-86
2022/04/18 03:47:39;;;;;;;;;;;8.00;73.50;;;6.89;nan;96068.81;4236629;33;19902;-86
2022/04/18 03:50:10;;;;;;;;;;;8.00;73.50;;;6.88;nan;96064.44;4213815;33;20007;-86
2022/04/18 03:52:45;;;;;;;;;;;8.00;73.60;;;6.88;nan;96067.16;4232044;33;20010;-86
2022/04/18 03:55:31;;;;;;;;;;;8.00;73.60;;;6.87;nan;96066.31;4242313;33;20021;-86
2022/04/18 03:58:06;;;;;;;;;;;8.00;73.40;;;6.86;nan;96064.66;4267885;33;20101;-86
2022/04/18 04:00:36;;;;;;;;;;;8.00;73.60;;;6.90;nan;96062.28;4267797;33;19901;-86
2022/04/18 04:03:06;;;;;;;;;;;8.00;73.20;;;6.93;nan;96061.78;4268590;33;19909;-85
2022/04/18 04:05:43;;;;;;;;;;;8.10;73.20;;;6.96;nan;96049.59;4292755;33;19902;-86
2022/04/18 04:08:12;;;;;;;;;;;8.10;73.10;;;6.98;nan;96056.41;4268096;33;20100;-86
2022/04/18 04:10:40;;;;;;;;;;;8.10;72.80;;;7.00;nan;96053.44;4244674;33;19902;-86
2022/04/18 04:13:12;;;;;;;;;;;8.10;72.70;;;7.01;nan;96050.47;4244568;33;20223;-88
2022/04/18 04:15:46;;;;;;;;;;;8.20;72.30;;;7.04;nan;96049.94;4268518;33;20446;-88
2022/04/18 04:18:24;;;;;;;;;;;8.20;72.10;;;7.10;nan;96055.47;4268652;33;19908;-87
2022/04/18 04:20:54;;;;;;;;;;;8.20;72.00;;;7.13;nan;96063.13;4268654;33;19965;-88
2022/04/18 04:23:23;;;;;;;;;;;8.20;71.90;;;7.16;nan;96058.00;4244985;33;20014;-88
2022/04/18 04:26:20;;;;;;;;;;;8.20;71.70;;;7.19;nan;96056.66;4245105;33;20125;-89
2022/04/18 04:28:53;;;;;;;;;;;8.30;71.80;;;7.19;nan;96052.06;4269218;33;19909;-89
2022/04/18 04:31:39;;;;;;;;;;;8.30;71.50;;;7.21;nan;96049.91;4245747;33;19909;-89
2022/04/18 04:34:10;;;;;;;;;;;8.40;71.30;;;7.25;nan;96058.41;4245476;33;19901;-89
2022/04/18 04:36:43;;;;;;;;;;;8.40;71.30;;;7.24;nan;96053.19;4268963;33;20086;-89
2022/04/18 04:39:14;;;;;;;;;;;8.40;71.30;;;7.25;nan;96054.84;4245375;33;19901;-89
2022/04/18 04:41:45;;;;;;;;;;;8.40;71.30;;;7.28;nan;96049.72;4269041;33;20220;-89
2022/04/18 04:44:15;;;;;;;;;;;8.40;71.10;;;7.30;nan;96050.28;4268920;33;19908;-89
2022/04/18 04:47:05;;;;;;;;;;;8.40;71.00;;;7.33;nan;96047.06;4267838;33;20011;-88
2022/04/18 04:49:34;;;;;;;;;;;8.50;71.10;;;7.32;nan;96044.59;4268764;33;20120;-88
2022/04/18 04:52:17;;;;;;;;;;;8.50;70.80;;;7.36;nan;96048.44;4244720;33;19988;-88
2022/04/18 04:54:47;;;;;;;;;;;8.50;70.50;;;7.37;nan;96041.91;4244577;33;19901;-88
2022/04/18 04:57:21;;;;;;;;;;;8.50;70.50;;;7.37;nan;96050.94;4267845;33;19901;-88
2022/04/18 05:00:11;;;;;;;;;;;8.60;70.80;;;7.42;nan;96049.34;4267876;33;19995;-87
2022/04/18 05:02:58;;;;;;;;;;;8.60;70.80;;;7.45;nan;96055.09;4267952;33;19909;-87
2022/04/18 05:05:28;;;;;;;;;;;8.60;70.50;;;7.47;nan;96050.22;4244045;33;19901;-86
2022/04/18 05:07:57;;;;;;;;;;;8.60;70.70;;;7.56;nan;96044.31;4242781;33;19908;-87
2022/04/18 05:10:29;;;;;;;;;;;8.70;70.50;;;7.66;nan;96050.72;4243892;33;20197;-86
2022/04/18 05:12:59;;;;;;;;;;;8.80;70.20;;;7.83;nan;96044.31;4243961;33;20455;-86
2022/04/18 05:15:29;;;;;;;;;;;9.00;70.20;;;8.09;nan;96048.13;4267643;33;19916;-86
2022/04/18 05:18:16;;;;;;;;;;;9.30;69.20;;;8.39;nan;96040.47;4266783;33;19901;-86
2022/04/18 05:20:47;;;;;;;;;;;9.60;68.40;;;8.62;nan;96042.06;4243628;33;19901;-86
2022/04/18 05:23:17;;;;;;;;;;;9.80;67.40;;;8.78;nan;96048.44;4243464;33;20435;-86
2022/04/18 05:25:46;;;;;;;;;;;9.90;66.80;;;8.87;nan;96046.84;4288404;33;19901;-86
2022/04/18 05:28:14;;;;;;;;;;;10.00;66.50;;;8.88;nan;96045.75;4266662;33;20108;-86
2022/04/18 05:30:51;;;;;;;;;;;10.00;66.40;;;8.85;nan;96049.00;4267363;33;20060;-85
2022/04/18 05:33:21;;;;;;;;;;;10.00;66.50;;;8.80;nan;96048.16;4243528;33;19901;-85
2022/04/18 05:36:08;;;;;;;;;;;10.00;66.70;;;8.75;nan;96048.94;4266853;33;20149;-85
2022/04/18 05:38:39;;;;;;;;;;;9.90;66.80;;;8.71;nan;96045.13;4243162;33;20128;-85
2022/04/18 05:41:14;;;;;;;;;;;9.90;67.10;;;8.69;nan;96041.84;4243414;33;19901;-85
2022/04/18 05:43:46;;;;;;;;;;;9.80;67.20;;;8.65;nan;96038.78;4243344;33;20000;-85
2022/04/18 05:46:16;;;;;;;;;;;9.80;67.40;;;8.65;nan;96037.97;4242806;33;20104;-86
2022/04/18 05:48:45;;;;;;;;;;;9.80;67.50;;;8.64;nan;96039.06;4242840;33;20163;-85
2022/04/18 05:51:14;;;;;;;;;;;9.80;67.60;;;8.62;nan;96039.31;4242355;33;19909;-85
2022/04/18 05:53:44;;;;;;;;;;;9.80;67.80;;;8.62;nan;96028.41;4265967;33;19901;-85
2022/04/18 05:56:19;;;;;;;;;;;9.70;67.90;;;8.62;nan;96025.69;4241640;33;20078;-85
2022/04/18 05:58:53;;;;;;;;;;;9.80;68.00;;;8.62;nan;96027.56;4242082;33;20080;-85
2022/04/18 06:01:43;;;;;;;;;;;9.70;67.90;;;8.64;nan;96030.88;4264015;33;19901;-85
2022/04/18 06:04:26;;;;;;;;;;;9.70;67.90;;;8.65;nan;96025.13;4242402;33;20216;-86
2022/04/18 06:07:12;;;;;;;;;;;9.80;68.00;;;8.67;nan;96028.44;4265909;33;19901;-86
2022/04/18 06:09:41;;;;;;;;;;;9.80;67.90;;;8.70;nan;96027.91;4238388;33;19949;-86
2022/04/18 06:12:10;;;;;;;;;;;9.80;68.00;;;8.72;nan;96033.09;4242792;33;20239;-86
2022/04/18 06:14:41;;;;;;;;;;;9.80;68.00;;;8.74;nan;96026.31;4266114;33;20098;-86
2022/04/18 06:17:11;;;;;;;;;;;9.80;67.90;;;8.74;nan;96023.56;4265301;33;19935;-86
2022/04/18 06:19:43;;;;;;;;;;;9.80;67.80;;;8.74;nan;96017.28;4241222;28;19910;-83
2022/04/18 06:22:12;;;;;;;;;;;9.80;67.80;;;8.75;nan;96022.50;4209226;33;20125;-83
2022/04/18 06:24:41;;;;;;;;;;;9.80;67.80;;;8.77;nan;96018.69;4208273;33;20313;-83
2022/04/18 06:27:15;;;;;;;;;;;9.80;68.00;;;8.78;nan;96014.88;4206825;33;19902;-83
2022/04/18 06:29:45;;;;;;;;;;;9.80;68.00;;;8.78;nan;96021.13;4231186;33;20079;-83
2022/04/18 06:32:15;;;;;;;;;;;9.80;68.00;;;8.79;nan;96017.31;4232046;33;20261;-83
2022/04/18 06:34:46;;;;;;;;;;;9.80;68.00;;;8.79;nan;96022.78;4231918;33;20121;-83
2022/04/18 06:37:20;;;;;;;;;;;9.90;68.20;;;8.79;nan;96022.78;4208737;33;20152;-83
2022/04/18 06:40:01;;;;;;;;;;;9.90;68.20;;;8.79;nan;96022.78;4231559;33;19910;-83
2022/04/18 06:42:36;;;;;;;;;;;9.90;68.20;;;8.79;nan;96022.78;4209525;33;20038;-83
2022/04/18 06:45:07;;;;;;;;;;;9.90;68.30;;;8.81;nan;96022.50;4233651;33;20106;-82
2022/04/18 06:47:37;;;;;;;;;;;9.90;68.40;;;8.82;nan;96016.81;4233592;33;19902;-83
2022/04/18 06:50:15;;;;;;;;;;;9.90;68.30;;;8.81;nan;96020.63;4211574;33;20018;-82
2022/04/18 06:52:51;;;;;;;;;;;9.90;68.30;;;8.82;nan;96022.25;4234389;33;20030;-82
2022/04/18 06:58:41;;;;;;;;;;;9.80;68.20;;;8.80;nan;96018.97;4208380;33;20054;-82
2022/04/18 07:01:11;;;;;;;;;;;9.80;68.40;;;8.80;nan;96013.50;4185031;33;19982;-83
2022/04/18 07:03:43;;;;;;;;;;;9.80;68.50;;;8.80;nan;96010.78;4208987;33;20112;-83
2022/04/18 07:06:12;;;;;;;;;;;9.80;68.50;;;8.80;nan;96005.31;4231579;33;20148;-83
2022/04/18 07:08:40;;;;;;;;;;;9.80;68.50;;;8.80;nan;95997.13;4203888;33;19910;-83
2022/04/18 07:11:29;;;;;;;;;;;9.80;68.40;;;8.80;nan;96008.06;4222609;33;19902;-83
2022/04/18 07:13:58;;;;;;;;;;;9.80;68.50;;;8.81;nan;96009.69;4207620;33;20029;-82
2022/04/18 07:16:29;;;;;;;;;;;9.80;68.50;;;8.81;nan;96001.50;4228690;33;20240;-83
2022/04/18 07:19:00;;;;;;;;;;;9.80;68.50;;;8.82;nan;96011.34;4229720;33;19902;-83
2022/04/18 07:21:28;;;;;;;;;;;9.80;68.40;;;8.84;nan;96003.69;4206874;33;19902;-83
2022/04/18 07:23:57;;;;;;;;;;;9.80;68.50;;;8.85;nan;96016.25;4182948;33;19985;-83
2022/04/18 07:26:33;;;;;;;;;;;9.80;68.50;;;8.86;nan;96006.97;4184168;33;20133;-83
2022/04/18 07:29:02;;;;;;;;;;;9.80;68.40;;;8.88;nan;96010.28;4208593;33;19990;-83
2022/04/18 07:31:32;;;;;;;;;;;9.80;68.30;;;8.89;nan;96006.47;4182943;33;20368;-83
2022/04/18 07:34:03;;;;;;;;;;;9.80;68.20;;;8.90;nan;95993.66;4185642;33;19910;-83
2022/04/18 07:36:31;;;;;;;;;;;9.80;68.20;;;8.91;nan;95998.00;4183752;33;20096;-82
2022/04/18 07:39:02;;;;;;;;;;;9.90;68.30;;;8.92;nan;95996.91;4182608;33;20232;-82
2022/04/18 07:41:37;;;;;;;;;;;9.90;68.30;;;8.93;nan;95995.03;4182234;33;19910;-82
2022/04/18 07:44:07;;;;;;;;;;;9.90;68.20;;;8.95;nan;95990.94;4181967;33;19910;-82
2022/04/18 07:46:36;;;;;;;;;;;9.90;68.30;;;8.97;nan;95993.41;4204839;33;20121;-82
2022/04/18 07:49:12;;;;;;;;;;;9.90;69.10;;;8.97;nan;95991.50;4228191;33;20113;-82
2022/04/18 07:51:46;;;;;;;;;;;9.90;68.30;;;8.98;nan;95995.03;4205762;33;20129;-82
2022/04/18 07:54:29;;;;;;;;;;;9.90;68.30;;;8.98;nan;95992.28;4206160;33;20036;-82
2022/04/18 07:57:00;;;;;;;;;;;9.90;68.30;;;8.97;nan;95985.22;4180432;33;19902;-82
2022/04/18 07:59:45;;;;;;;;;;;9.90;68.30;;;8.97;nan;95980.56;4179097;33;19909;-82
2022/04/18 08:02:14;;;;;;;;;;;9.90;68.40;;;8.97;nan;95988.75;4194538;33;19932;-82
2022/04/18 08:05:03;;;;;;;;;;;9.90;68.40;;;8.98;nan;95986.84;4250298;33;19909;-82
2022/04/18 08:07:46;;;;;;;;;;;10.00;68.30;;;8.97;nan;95986.03;4182667;33;20031;-82
2022/04/18 08:10:16;;;;;;;;;;;9.90;68.30;;;8.96;nan;95978.91;4183256;33;19953;-82
2022/04/18 08:12:45;;;;;;;;;;;9.90;68.40;;;8.97;nan;95979.75;4207354;33;19903;-82
2022/04/18 08:15:32;;;;;;;;;;;9.90;68.40;;;8.95;nan;95971.81;4231035;33;20136;-81
2022/04/18 08:18:01;;;;;;;;;;;9.90;68.40;;;8.94;nan;95969.38;4182377;33;19986;-81
2022/04/18 08:20:46;;;;;;;;;;;9.90;68.40;;;8.91;nan;95965.25;4201809;33;19909;-81
2022/04/18 08:23:15;;;;;;;;;;;9.90;68.40;;;8.90;nan;95969.88;4205542;33;20120;-82
2022/04/18 08:26:02;;;;;;;;;;;9.90;68.40;;;8.88;nan;95960.34;4229880;33;21375;-81
2022/04/18 08:28:39;;;;;;;;;;;9.90;68.40;;;8.87;nan;95964.94;4229393;33;19903;-82
2022/04/18 08:31:07;;;;;;;;;;;9.90;68.40;;;8.86;nan;95974.22;4225412;33;19929;-82
2022/04/18 08:33:55;;;;;;;;;;;9.90;68.30;;;8.83;nan;95963.88;4230638;33;19902;-82
2022/04/18 08:36:25;;;;;;;;;;;9.90;68.40;;;8.82;nan;95962.22;4206303;33;20017;-82
2022/04/18 08:38:54;;;;;;;;;;;9.80;68.30;;;8.81;nan;95957.84;4231688;33;20468;-82
2022/04/18 08:41:29;;;;;;;;;;;9.80;68.30;;;8.78;nan;95961.09;4231805;33;19910;-82
2022/04/18 08:43:58;;;;;;;;;;;9.90;68.30;;;8.78;nan;95946.63;4233114;33;19992;-82
2022/04/18 08:46:28;;;;;;;;;;;9.80;68.40;;;8.76;nan;95952.34;4233694;33;19909;-82
2022/04/18 08:54:31;;;;;;;;;;;9.80;68.40;;;8.73;nan;95944.69;4209023;33;20095;-82
2022/04/18 08:57:00;;;;;;;;;;;9.80;68.40;;;8.70;nan;95943.31;4191359;33;20130;-82
2022/04/18 08:59:29;;;;;;;;;;;9.80;68.20;;;8.70;nan;95942.50;4200617;33;20262;-82
2022/04/18 09:01:59;;;;;;;;;;;9.80;68.40;;;8.68;nan;95939.22;4173604;33;19902;-81
2022/04/18 09:04:55;;;;;;;;;;;9.70;68.40;;;8.67;nan;95940.28;4196874;33;19903;-82
2022/04/18 09:07:27;;;;;;;;;;;9.80;68.40;;;8.65;nan;95934.28;4194233;33;20167;-81
2022/04/18 09:09:59;;;;;;;;;;;9.70;68.50;;;8.64;nan;95932.63;4224306;33;19910;-82
2022/04/18 09:12:29;;;;;;;;;;;9.70;68.30;;;8.62;nan;95932.06;4227264;33;19903;-82
2022/04/18 09:15:16;;;;;;;;;;;9.70;68.50;;;8.59;nan;95931.50;4224328;33;20221;-82
2022/04/18 09:18:06;;;;;;;;;;;9.70;68.50;;;8.57;nan;95933.72;4230616;33;20156;-82
2022/04/18 09:20:43;;;;;;;;;;;9.70;68.60;;;8.55;nan;95924.97;4207289;33;19976;-82
2022/04/18 09:23:25;;;;;;;;;;;9.60;68.50;;;8.55;nan;95927.69;4196516;33;19910;-82
2022/04/18 09:26:00;;;;;;;;;;;9.60;68.70;;;8.53;nan;95927.13;4252103;33;19903;-82
2022/04/18 09:28:31;;;;;;;;;;;9.60;68.80;;;8.53;nan;95927.13;4229947;33;20212;-82
2022/04/18 09:31:03;;;;;;;;;;;9.60;68.80;;;8.50;nan;95926.84;4186022;33;20053;-82
2022/04/18 09:33:35;;;;;;;;;;;9.60;68.80;;;8.50;nan;95911.28;4187870;33;20065;-82
2022/04/18 09:36:12;;;;;;;;;;;9.60;69.00;;;8.50;nan;95918.66;4193840;33;20186;-82
2022/04/18 09:38:49;;;;;;;;;;;9.60;69.00;;;8.48;nan;95912.63;4207545;33;20055;-82
2022/04/18 09:41:30;;;;;;;;;;;9.60;69.10;;;8.44;nan;95918.59;4252464;33;20239;-83
2022/04/18 09:44:03;;;;;;;;;;;9.50;69.20;;;8.43;nan;95908.75;4230760;33;19902;-83
2022/04/18 09:46:39;;;;;;;;;;;9.50;69.30;;;8.40;nan;95906.53;4230994;33;19903;-82
2022/04/18 09:49:16;;;;;;;;;;;9.50;69.40;;;8.39;nan;95906.81;4256742;33;19909;-82
2022/04/18 09:51:52;;;;;;;;;;;9.50;69.50;;;8.37;nan;95901.66;4209783;33;19902;-82
2022/04/18 09:54:24;;;;;;;;;;;9.50;69.40;;;8.35;nan;95900.25;4232319;33;20267;-82
2022/04/18 09:56:53;;;;;;;;;;;9.50;69.50;;;8.32;nan;95900.78;4208794;33;20165;-82
2022/04/18 09:59:22;;;;;;;;;;;9.40;69.40;;;8.28;nan;95897.75;4204273;33;19902;-83
2022/04/18 10:01:50;;;;;;;;;;;9.40;69.50;;;8.24;nan;95892.00;4205318;33;20110;-82
2022/04/18 10:04:19;;;;;;;;;;;9.40;69.80;;;8.21;nan;95897.97;4181368;33;19910;-82
2022/04/18 10:06:50;;;;;;;;;;;9.30;69.90;;;8.19;nan;95891.16;4181093;33;20149;-82
2022/04/18 10:09:18;;;;;;;;;;;9.30;70.00;;;8.15;nan;95888.13;4228312;33;20119;-82
2022/04/18 10:11:48;;;;;;;;;;;9.30;70.10;;;8.11;nan;95887.84;4205313;33;19949;-82
2022/04/18 10:14:17;;;;;;;;;;;9.20;70.10;;;8.10;nan;95890.81;4204317;33;19903;-82
2022/04/18 10:16:45;;;;;;;;;;;9.20;70.20;;;8.07;nan;95886.72;4157401;33;19995;-81
2022/04/18 10:19:37;;;;;;;;;;;9.20;70.30;;;8.06;nan;95884.28;4181047;33;19903;-81
2022/04/18 10:22:17;;;;;;;;;;;9.20;70.30;;;8.06;nan;95876.09;4204156;33;20042;-82
2022/04/18 10:25:15;;;;;;;;;;;9.20;70.10;;;8.06;nan;95884.28;4181093;33;19911;-82
2022/04/18 10:28:09;;;;;;;;;;;9.20;70.30;;;8.07;nan;95877.72;4204418;33;19993;-82
2022/04/18 10:30:42;;;;;;;;;;;9.20;70.10;;;8.07;nan;95875.81;4203811;33;20019;-81
2022/04/18 10:33:13;;;;;;;;;;;9.20;70.00;;;8.08;nan;95879.34;4181007;33;19903;-82
2022/04/18 10:35:53;;;;;;;;;;;9.20;70.10;;;8.08;nan;95876.63;4227774;33;20138;-81
2022/04/18 10:38:25;;;;;;;;;;;9.20;69.90;;;8.08;nan;95865.72;4180883;33;19902;-81
2022/04/18 10:41:14;;;;;;;;;;;9.20;69.80;;;8.08;nan;95857.53;4204204;33;19922;-81
2022/04/18 10:44:08;;;;;;;;;;;9.20;69.80;;;8.08;nan;95874.72;4181509;33;19903;-82
2022/04/18 10:46:38;;;;;;;;;;;9.20;69.80;;;8.09;nan;95867.38;4197443;33;19903;-82
2022/04/18 10:49:14;;;;;;;;;;;9.20;69.90;;;8.08;nan;95866.56;4205159;33;20089;-82
2022/04/18 10:51:44;;;;;;;;;;;9.20;69.80;;;8.09;nan;95861.91;4180921;33;20084;-82
2022/04/18 10:54:15;;;;;;;;;;;9.20;69.80;;;8.08;nan;95858.38;4203920;33;20038;-81
2022/04/18 10:56:54;;;;;;;;;;;9.20;69.80;;;8.07;nan;95853.16;4158233;33;20137;-82
2022/04/18 10:59:25;;;;;;;;;;;9.20;69.70;;;8.07;nan;95847.72;4182375;33;19995;-81
2022/04/18 11:01:55;;;;;;;;;;;9.20;69.70;;;8.07;nan;95854.00;4204832;33;20145;-81
2022/04/18 11:04:27;;;;;;;;;;;9.20;69.60;;;8.07;nan;95850.44;4206168;33;19903;-82
2022/04/18 11:07:03;;;;;;;;;;;9.20;69.60;;;8.06;nan;95851.56;4203403;33;19980;-81
2022/04/18 11:09:33;;;;;;;;;;;9.20;69.50;;;8.05;nan;95847.19;4181054;33;20334;-82
2022/04/18 11:12:08;;;;;;;;;;;9.20;69.50;;;8.03;nan;95850.16;4227763;33;19903;-81
2022/04/18 11:14:54;;;;;;;;;;;9.20;69.50;;;8.03;nan;95846.63;4204699;33;19902;-81
2022/04/18 11:17:31;;;;;;;;;;;9.20;69.60;;;8.01;nan;95844.13;4156742;33;19922;-81
2022/04/18 11:20:26;;;;;;;;;;;9.10;69.60;;;7.98;nan;95845.50;4181655;33;20299;-82
2022/04/18 11:23:23;;;;;;;;;;;9.10;69.60;;;7.95;nan;95846.00;4181198;33;19910;-82
2022/04/18 11:25:53;;;;;;;;;;;9.10;69.80;;;7.93;nan;95834.56;4155598;33;19903;-82
2022/04/18 11:28:23;;;;;;;;;;;9.10;70.00;;;7.92;nan;95846.56;4186046;33;20125;-82
2022/04/18 11:30:53;;;;;;;;;;;9.00;70.00;;;7.90;nan;95839.72;4209766;33;20133;-81
2022/04/18 11:33:22;;;;;;;;;;;9.00;70.00;;;7.88;nan;95834.53;4186516;33;19941;-82
2022/04/18 11:35:50;;;;;;;;;;;9.00;70.00;;;7.87;nan;95838.34;4181753;33;19909;-82
2022/04/18 11:38:19;;;;;;;;;;;9.00;70.20;;;7.86;nan;95839.41;4204833;33;20230;-82
2022/04/18 11:40:47;;;;;;;;;;;9.00;70.20;;;7.86;nan;95836.69;4228780;33;19902;-81
2022/04/18 11:43:17;;;;;;;;;;;9.00;70.30;;;7.85;nan;95831.53;4210367;33;19902;-80
2022/04/18 11:45:45;;;;;;;;;;;9.00;70.40;;;7.85;nan;95828.78;4259284;33;20065;-81
2022/04/18 11:48:15;;;;;;;;;;;8.90;70.30;;;7.83;nan;95815.41;4230641;33;19902;-81
2022/04/18 11:50:44;;;;;;;;;;;8.90;70.40;;;7.81;nan;95828.50;4184519;33;19988;-81
2022/04/18 11:53:12;;;;;;;;;;;8.90;70.40;;;7.81;nan;95817.59;4255431;33;20102;-80
2022/04/18 11:55:45;;;;;;;;;;;8.90;70.40;;;7.82;nan;95819.22;4180859;33;19910;-80
2022/04/18 11:58:13;;;;;;;;;;;8.90;70.50;;;7.81;nan;95815.69;4221693;33;19910;-81
2022/04/18 12:09:03;;;;;;;;;;;8.90;70.30;;;7.83;nan;95804.50;4232923;33;19910;-81
2022/04/18 12:11:35;;;;;;;;;;;8.90;70.40;;;7.81;nan;95799.34;4232857;33;19902;-81
2022/04/18 12:14:04;;;;;;;;;;;8.90;70.30;;;7.80;nan;95800.41;4231925;33;19902;-82
2022/04/18 12:16:33;;;;;;;;;;;8.90;70.30;;;7.81;nan;95801.25;4207889;33;19910;-81
2022/04/18 12:19:03;;;;;;;;;;;8.90;70.30;;;7.79;nan;95793.31;4224523;28;19909;-84
2022/04/18 12:21:33;;;;;;;;;;;8.90;70.40;;;7.79;nan;95795.25;4213478;33;20255;-84
2022/04/18 12:24:01;;;;;;;;;;;8.90;70.40;;;7.79;nan;95793.31;4215107;33;20299;-84
2022/04/18 12:26:31;;;;;;;;;;;8.90;70.40;;;7.77;nan;95791.94;4214516;33;19901;-85
2022/04/18 12:29:01;;;;;;;;;;;8.90;70.60;;;7.78;nan;95790.88;4205763;33;20235;-84
2022/04/18 12:31:29;;;;;;;;;;;8.90;70.60;;;7.78;nan;95790.88;4186756;33;19909;-84
2022/04/18 12:33:58;;;;;;;;;;;8.90;70.60;;;7.77;nan;95790.03;4186852;33;19909;-84
2022/04/18 12:36:30;;;;;;;;;;;8.90;70.60;;;7.77;nan;95783.78;4209573;33;19909;-83
2022/04/18 12:38:59;;;;;;;;;;;8.90;70.80;;;7.75;nan;95781.28;4209973;33;20097;-84
2022/04/18 12:41:28;;;;;;;;;;;8.90;70.80;;;7.76;nan;95782.13;4234363;33;20176;-84
2022/04/18 12:43:57;;;;;;;;;;;8.90;70.90;;;7.77;nan;95778.31;4186598;33;19922;-84
2022/04/18 12:46:26;;;;;;;;;;;8.90;70.90;;;7.78;nan;95779.97;4186259;33;20081;-84